Time;durP1;ratioP1;P1;durP2;ratioP2;P2;SDS_P1;SDS_P2;PMS_P1;PMS_P2;Temp;Humidity;BMP_temperature;BMP_pressure;BME280_temperature;BME280_humidity;BME280_pressure;Samples;Min_cycle;Max_cycle;Signal;HPM_P1;HPM_P2
2023/09/27 00:00:01;;;;;;;3.22;2.03;;;;;;;16.44;59.17;93874.38;526601;28;869;-41
2023/09/27 00:00:17;;;;;;;3.00;1.92;;;;;;;16.43;59.16;93872.91;526633;28;794;-41
2023/09/27 00:00:32;;;;;;;3.38;2.05;;;;;;;16.36;59.26;93873.72;526595;28;868;-41
2023/09/27 00:00:48;;;;;;;3.50;2.38;;;;;;;16.41;59.00;93869.22;526737;28;848;-41
2023/09/27 00:01:04;;;;;;;3.53;2.30;;;;;;;16.40;59.02;93876.84;526770;28;805;-41
2023/09/27 00:01:19;;;;;;;3.80;2.00;;;;;;;16.38;59.17;93876.69;526783;28;1664;-41
2023/09/27 00:01:34;;;;;;;3.37;1.90;;;;;;;16.36;59.02;93882.09;526763;28;817;-41
2023/09/27 00:01:50;;;;;;;2.10;1.70;;;;;;;16.33;59.19;93877.66;526835;28;860;-41
2023/09/27 00:02:05;;;;;;;2.28;1.88;;;;;;;16.35;59.36;93879.88;526751;28;908;-41
2023/09/27 00:02:21;;;;;;;2.63;2.03;;;;;;;16.33;59.22;93874.16;526832;28;789;-42
2023/09/27 00:02:40;;;;;;;3.95;2.25;;;;;;;16.32;59.46;93876.19;526749;28;1739;-42
2023/09/27 00:02:55;;;;;;;2.97;1.95;;;;;;;16.32;59.63;93881.03;526603;28;935;-41
2023/09/27 00:03:11;;;;;;;3.10;1.90;;;;;;;16.31;59.52;93877.50;526811;28;794;-41
2023/09/27 00:03:27;;;;;;;3.38;2.17;;;;;;;16.30;59.64;93878.84;526830;28;824;-41
2023/09/27 00:03:42;;;;;;;3.20;2.08;;;;;;;16.30;59.60;93878.09;526680;28;878;-42
2023/09/27 00:03:58;;;;;;;5.70;1.90;;;;;;;16.31;59.65;93879.53;526882;28;844;-41
2023/09/27 00:04:13;;;;;;;6.00;1.93;;;;;;;16.30;59.51;93875.31;526765;28;813;-41
2023/09/27 00:04:28;;;;;;;3.10;1.95;;;;;;;16.29;59.70;93884.97;526764;28;1249;-41
2023/09/27 00:04:44;;;;;;;2.53;2.10;;;;;;;16.26;59.65;93878.50;526702;28;880;-41
2023/09/27 00:04:59;;;;;;;3.57;2.00;;;;;;;16.26;59.67;93878.50;526866;28;796;-41
2023/09/27 00:05:16;;;;;;;3.65;1.98;;;;;;;16.26;59.52;93872.94;526713;28;856;-41
2023/09/27 00:05:32;;;;;;;2.92;2.15;;;;;;;16.24;59.67;93875.53;526808;28;860;-41
2023/09/27 00:05:47;;;;;;;3.10;2.20;;;;;;;16.26;59.63;93869.41;526781;28;859;-41
2023/09/27 00:06:02;;;;;;;2.20;1.92;;;;;;;16.25;59.65;93863.09;526699;28;928;-41
2023/09/27 00:06:18;;;;;;;2.50;1.80;;;;;;;16.25;59.46;93865.13;526792;28;931;-41
2023/09/27 00:06:33;;;;;;;2.33;1.80;;;;;;;16.25;59.60;93868.66;526747;28;908;-41
2023/09/27 00:06:49;;;;;;;2.22;1.90;;;;;;;16.25;59.26;93871.44;526799;28;904;-41
2023/09/27 00:07:05;;;;;;;2.83;1.88;;;;;;;16.25;59.36;93871.44;526762;28;895;-42
2023/09/27 00:07:21;;;;;;;3.90;1.70;;;;;;;16.24;59.27;93869.97;526774;28;818;-42
2023/09/27 00:07:38;;;;;;;4.40;1.80;;;;;;;16.26;59.43;93877.78;526757;28;888;-41
2023/09/27 00:07:53;;;;;;;4.10;1.92;;;;;;;16.24;59.32;93869.25;527863;28;2289;-41
2023/09/27 00:08:10;;;;;;;2.87;1.93;;;;;;;16.21;59.42;93871.13;528949;27;817;-41
2023/09/27 00:08:26;;;;;;;2.13;1.88;;;;;;;16.19;59.39;93870.22;528885;27;840;-41
2023/09/27 00:08:41;;;;;;;2.40;1.90;;;;;;;16.22;59.26;93875.38;528882;27;954;-41
2023/09/27 00:08:57;;;;;;;2.40;1.65;;;;;;;16.22;59.32;93869.81;528949;27;804;-41
2023/09/27 00:09:12;;;;;;;4.03;1.67;;;;;;;16.22;59.32;93871.88;528853;27;868;-41
2023/09/27 00:09:31;;;;;;;3.87;2.03;;;;;;;16.22;59.30;93874.66;528903;27;867;-41
2023/09/27 00:09:46;;;;;;;2.20;1.77;;;;;;;16.21;59.33;93868.34;528803;28;1085;-41
2023/09/27 00:10:06;;;;;;;2.67;1.80;;;;;;;16.21;59.20;93873.19;528735;27;1963;-41
2023/09/27 00:10:21;;;;;;;1.92;1.80;;;;;;;16.19;59.20;93861.88;528837;27;865;-41
2023/09/27 00:10:37;;;;;;;1.80;1.70;;;;;;;16.18;59.10;93872.28;528898;27;868;-41
2023/09/27 00:10:52;;;;;;;2.10;1.73;;;;;;;16.16;59.38;93868.59;528889;27;1106;-41
2023/09/27 00:11:08;;;;;;;1.97;1.60;;;;;;;16.15;59.42;93865.09;528953;27;844;-41
2023/09/27 00:11:23;;;;;;;2.33;1.70;;;;;;;16.14;59.40;93871.97;528916;27;860;-41
2023/09/27 00:11:38;;;;;;;2.20;1.90;;;;;;;16.11;59.45;93864.75;528965;27;809;-41
2023/09/27 00:11:54;;;;;;;2.07;1.80;;;;;;;16.11;59.33;93867.56;528856;27;867;-41
2023/09/27 00:12:09;;;;;;;2.92;1.83;;;;;;;16.11;59.50;93867.56;528985;27;852;-41
2023/09/27 00:12:24;;;;;;;3.43;2.03;;;;;;;16.11;59.61;93864.03;528895;27;821;-41
2023/09/27 00:12:40;;;;;;;2.80;2.03;;;;;;;16.10;59.51;93866.06;528895;27;965;-41
2023/09/27 00:12:56;;;;;;;1.90;1.70;;;;;;;16.10;59.50;93873.69;528817;27;827;-41
2023/09/27 00:13:11;;;;;;;1.65;1.55;;;;;;;16.10;59.45;93868.09;528926;27;801;-41
2023/09/27 00:13:26;;;;;;;3.07;1.80;;;;;;;16.09;59.39;93872.22;528855;27;903;-41
2023/09/27 00:13:42;;;;;;;3.73;2.03;;;;;;;16.08;59.47;93862.38;528810;27;892;-41
2023/09/27 00:13:57;;;;;;;3.40;1.90;;;;;;;16.07;59.44;93867.22;528923;28;884;-41
2023/09/27 00:14:14;;;;;;;3.43;1.93;;;;;;;16.07;59.42;93860.91;528798;27;892;-41
2023/09/27 00:14:29;;;;;;;3.20;2.05;;;;;;;16.05;59.64;93864.25;528860;27;954;-42
2023/09/27 00:14:44;;;;;;;2.58;1.85;;;;;;;16.05;59.53;93860.75;528808;27;884;-42
2023/09/27 00:15:03;;;;;;;2.40;1.80;;;;;;;16.02;59.57;93859.84;528915;27;844;-41
2023/09/27 00:15:18;;;;;;;2.75;1.80;;;;;;;16.03;59.57;93864.09;528934;27;860;-41
2023/09/27 00:15:34;;;;;;;2.50;1.87;;;;;;;16.03;59.69;93866.13;528838;27;840;-41
2023/09/27 00:15:49;;;;;;;2.05;1.80;;;;;;;16.02;59.88;93859.84;528962;27;789;-41
2023/09/27 00:16:05;;;;;;;2.20;2.00;;;;;;;16.03;59.69;93860.56;528851;27;1115;-41
2023/09/27 00:16:20;;;;;;;2.40;2.00;;;;;;;16.02;59.78;93854.28;528964;27;828;-41
2023/09/27 00:16:35;;;;;;;2.37;2.00;;;;;;;16.02;59.88;93865.44;528812;27;869;-41
2023/09/27 00:16:51;;;;;;;2.40;2.10;;;;;;;16.02;59.94;93861.91;528869;27;864;-41
2023/09/27 00:17:06;;;;;;;3.30;1.90;;;;;;;16.01;60.06;93866.72;528853;27;895;-41
2023/09/27 00:17:22;;;;;;;3.33;2.03;;;;;;;15.99;59.98;93863.78;528931;27;836;-41
2023/09/27 00:17:38;;;;;;;2.60;1.90;;;;;;;15.99;60.08;93863.78;528868;27;1043;-41
2023/09/27 00:17:54;;;;;;;3.75;2.03;;;;;;;15.99;60.07;93869.34;528858;27;812;-42
2023/09/27 00:18:10;;;;;;;3.90;2.20;;;;;;;15.99;60.10;93861.00;528891;27;1114;-41
2023/09/27 00:18:25;;;;;;;2.65;1.90;;;;;;;16.00;60.09;93861.72;528595;27;892;-42
2023/09/27 00:18:41;;;;;;;2.35;1.83;;;;;;;16.00;60.06;93856.16;528697;28;923;-41
2023/09/27 00:18:56;;;;;;;3.10;2.10;;;;;;;15.99;60.09;93861.00;528738;28;762;-41
2023/09/27 00:19:11;;;;;;;4.07;2.17;;;;;;;15.98;60.05;93856.00;528682;28;916;-42
2023/09/27 00:19:27;;;;;;;2.90;1.98;;;;;;;15.86;60.02;93848.16;528703;28;833;-41
2023/09/27 00:19:42;;;;;;;2.13;1.90;;;;;;;15.97;60.17;93860.09;528706;28;844;-41
2023/09/27 00:19:57;;;;;;;2.37;2.07;;;;;;;15.97;60.04;93860.09;528636;27;1136;-41
2023/09/27 00:20:15;;;;;;;2.53;2.10;;;;;;;15.97;60.21;93863.63;528593;27;987;-41
2023/09/27 00:20:32;;;;;;;2.88;1.90;;;;;;;15.98;60.35;93864.34;528868;27;1023;-41
2023/09/27 00:20:47;;;;;;;2.10;1.70;;;;;;;15.99;60.10;93865.81;528670;28;884;-41
2023/09/27 00:21:03;;;;;;;2.30;1.80;;;;;;;15.99;60.31;93861.00;528697;28;848;-41
2023/09/27 00:21:18;;;;;;;3.67;2.10;;;;;;;15.99;60.27;93855.41;528737;28;860;-41
2023/09/27 00:21:34;;;;;;;3.00;1.97;;;;;;;16.00;60.26;93853.38;528606;28;983;-41
2023/09/27 00:21:49;;;;;;;1.92;1.70;;;;;;;16.00;60.16;93862.47;528744;28;904;-41
2023/09/27 00:22:05;;;;;;;2.50;1.80;;;;;;;16.00;60.40;93856.91;528698;28;837;-41
2023/09/27 00:22:21;;;;;;;2.97;1.75;;;;;;;15.98;60.15;93850.44;528686;28;1232;-41
2023/09/27 00:22:37;;;;;;;3.55;1.77;;;;;;;16.02;60.22;93854.28;528733;28;816;-41
2023/09/27 00:22:54;;;;;;;2.88;2.03;;;;;;;16.02;59.98;93859.84;528775;27;876;-41
2023/09/27 00:23:10;;;;;;;2.55;1.90;;;;;;;16.02;60.20;93857.06;528873;27;891;-41
2023/09/27 00:23:26;;;;;;;2.88;1.73;;;;;;;16.01;60.05;93850.00;528796;27;904;-41
2023/09/27 00:23:42;;;;;;;3.90;2.05;;;;;;;16.01;60.21;93858.38;528898;27;833;-41
2023/09/27 00:23:57;;;;;;;3.37;2.10;;;;;;;16.02;60.08;93850.75;528933;27;859;-41
2023/09/27 00:24:12;;;;;;;2.22;1.95;;;;;;;16.01;60.06;93852.78;528830;27;978;-41
2023/09/27 00:24:28;;;;;;;1.90;1.70;;;;;;;16.03;59.91;93855.00;528882;27;950;-41
2023/09/27 00:24:43;;;;;;;2.10;1.80;;;;;;;16.03;59.94;93855.00;528874;27;809;-41
2023/09/27 00:24:59;;;;;;;2.20;2.00;;;;;;;15.93;59.84;93844.53;528825;27;904;-41
2023/09/27 00:25:14;;;;;;;2.15;1.90;;;;;;;16.04;60.01;93856.47;528817;27;828;-41
2023/09/27 00:25:30;;;;;;;2.03;1.70;;;;;;;16.04;59.86;93851.66;528839;27;1358;-42
2023/09/27 00:25:45;;;;;;;2.23;1.70;;;;;;;16.04;59.87;93853.69;528778;27;938;-41
2023/09/27 00:26:00;;;;;;;5.60;2.08;;;;;;;16.04;59.92;93857.22;528776;27;1139;-41
2023/09/27 00:26:16;;;;;;;5.83;2.00;;;;;;;16.03;59.91;93864.09;528306;27;1089;-41
2023/09/27 00:26:31;;;;;;;3.10;1.77;;;;;;;16.03;60.02;93864.09;528900;27;781;-41
2023/09/27 00:26:46;;;;;;;6.38;2.75;;;;;;;16.02;60.01;93862.63;526886;27;1136;-41
2023/09/27 00:27:02;;;;;;;9.43;3.30;;;;;;;16.01;60.28;93860.41;526804;28;844;-41
2023/09/27 00:27:17;;;;;;;6.80;2.53;;;;;;;15.89;60.18;93844.22;528368;28;1181;-41
2023/09/27 00:27:34;;;;;;;4.53;2.20;;;;;;;16.00;60.12;93859.69;528806;27;895;-41
2023/09/27 00:27:50;;;;;;;3.60;2.10;;;;;;;16.01;60.09;93857.63;528842;27;983;-41
2023/09/27 00:28:05;;;;;;;2.20;2.00;;;;;;;16.00;60.22;93858.94;528624;27;1111;-41
2023/09/27 00:28:20;;;;;;;2.88;2.00;;;;;;;15.99;60.11;93857.47;528912;27;789;-41
2023/09/27 00:28:36;;;;;;;4.33;2.03;;;;;;;16.00;60.18;93856.16;528807;27;809;-41
2023/09/27 00:28:51;;;;;;;4.63;2.10;;;;;;;15.99;60.14;93855.41;528844;27;1670;-41
2023/09/27 00:29:06;;;;;;;4.75;2.08;;;;;;;16.00;60.13;93862.47;528881;27;777;-41
2023/09/27 00:29:22;;;;;;;4.88;2.25;;;;;;;16.00;60.25;93859.69;528888;27;793;-41
2023/09/27 00:29:37;;;;;;;3.17;2.10;;;;;;;16.00;60.20;93853.38;528843;27;825;-41
2023/09/27 00:29:53;;;;;;;2.60;2.07;;;;;;;16.00;60.31;93856.16;528816;27;995;-41
2023/09/27 00:30:13;;;;;;;4.72;2.30;;;;;;;16.00;60.52;93858.94;528851;27;1922;-41
2023/09/27 00:30:28;;;;;;;29.52;4.90;;;;;;;15.99;60.54;93849.09;528797;28;1741;-41
2023/09/27 00:30:44;;;;;;;26.63;5.13;;;;;;;15.99;60.65;93854.69;528789;27;860;-41
2023/09/27 00:30:59;;;;;;;8.07;3.15;;;;;;;15.99;60.65;93851.91;528954;27;848;-42
2023/09/27 00:31:14;;;;;;;5.33;2.70;;;;;;;15.98;60.68;93853.97;528758;27;943;-41
2023/09/27 00:31:30;;;;;;;6.23;2.43;;;;;;;15.97;60.58;93858.03;528913;27;868;-41
2023/09/27 00:31:45;;;;;;;5.47;1.88;;;;;;;15.97;60.60;93848.94;528848;27;821;-41
2023/09/27 00:32:00;;;;;;;4.83;1.97;;;;;;;15.97;60.59;93852.47;528902;27;813;-41
2023/09/27 00:32:16;;;;;;;6.73;2.10;;;;;;;15.97;60.77;93854.50;528800;27;900;-41
2023/09/27 00:32:31;;;;;;;6.00;2.20;;;;;;;15.91;60.74;93847.16;528909;27;785;-41
2023/09/27 00:32:46;;;;;;;2.30;2.10;;;;;;;15.96;60.79;93853.78;528784;27;916;-41
2023/09/27 00:33:02;;;;;;;2.40;2.20;;;;;;;15.97;60.66;93848.94;528769;28;896;-41
2023/09/27 00:33:18;;;;;;;4.03;2.35;;;;;;;15.96;60.51;93855.84;528894;27;859;-41
2023/09/27 00:33:33;;;;;;;4.85;2.20;;;;;;;15.96;60.86;93858.63;528810;27;777;-41
2023/09/27 00:33:49;;;;;;;4.20;2.00;;;;;;;15.97;60.51;93851.72;528921;27;856;-41
2023/09/27 00:34:05;;;;;;;3.40;2.00;;;;;;;15.97;60.87;93849.69;528879;27;880;-41
2023/09/27 00:34:20;;;;;;;4.50;2.03;;;;;;;15.97;60.77;93862.88;528877;27;786;-41
2023/09/27 00:34:35;;;;;;;4.93;1.93;;;;;;;15.96;60.86;93858.63;528786;27;935;-41
2023/09/27 00:34:51;;;;;;;2.03;1.80;;;;;;;15.97;60.88;93851.72;528859;27;880;-41
2023/09/27 00:35:12;;;;;;;3.88;2.00;;;;;;;15.97;60.77;93857.31;528838;27;789;-41
2023/09/27 00:35:27;;;;;;;3.17;2.00;;;;;;;15.96;60.67;93856.56;528888;27;876;-41
2023/09/27 00:35:47;;;;;;;3.05;1.80;;;;;;;15.95;60.77;93852.31;528804;27;951;-41
2023/09/27 00:36:03;;;;;;;3.08;1.80;;;;;;;15.94;60.54;93854.34;528842;27;923;-41
2023/09/27 00:36:19;;;;;;;2.03;1.80;;;;;;;15.94;60.79;93853.63;528835;27;896;-41
2023/09/27 00:36:34;;;;;;;2.20;2.00;;;;;;;15.95;60.60;93852.31;528848;27;824;-41
2023/09/27 00:36:49;;;;;;;3.00;1.93;;;;;;;15.96;60.63;93853.06;528892;27;864;-41
2023/09/27 00:37:04;;;;;;;3.30;1.92;;;;;;;15.96;60.53;93853.78;528573;28;856;-41
2023/09/27 00:37:20;;;;;;;7.00;2.50;;;;;;;15.95;60.71;93849.53;528765;28;841;-41
2023/09/27 00:37:36;;;;;;;9.85;2.40;;;;;;;15.96;60.51;93851.00;528638;28;887;-42
2023/09/27 00:37:51;;;;;;;5.90;1.90;;;;;;;15.97;60.38;93858.03;528726;28;785;-41
2023/09/27 00:38:07;;;;;;;2.92;1.63;;;;;;;15.97;60.27;93852.47;528665;28;857;-42
2023/09/27 00:38:22;;;;;;;3.77;2.00;;;;;;;15.98;60.39;93847.66;528683;28;966;-41
2023/09/27 00:38:37;;;;;;;4.80;2.23;;;;;;;15.98;60.26;93850.44;528687;28;915;-41
2023/09/27 00:38:53;;;;;;;3.60;2.00;;;;;;;15.98;60.11;93848.41;528728;28;778;-41
2023/09/27 00:39:08;;;;;;;2.20;1.77;;;;;;;15.99;60.20;93849.84;528827;27;1097;-41
2023/09/27 00:39:24;;;;;;;2.60;1.70;;;;;;;16.00;59.97;93850.59;528799;27;844;-41
2023/09/27 00:39:39;;;;;;;2.70;1.73;;;;;;;16.00;59.75;93851.34;528861;27;868;-41
2023/09/27 00:39:56;;;;;;;2.17;1.70;;;;;;;15.98;59.53;93847.66;528762;27;845;-41
2023/09/27 00:40:17;;;;;;;1.98;1.73;;;;;;;15.99;59.33;93843.53;528801;27;944;-41
2023/09/27 00:40:32;;;;;;;9.27;2.35;;;;;;;15.97;59.20;93849.69;528797;27;920;-41
2023/09/27 00:40:48;;;;;;;15.90;3.00;;;;;;;15.97;59.35;93849.69;528884;27;824;-41
2023/09/27 00:41:04;;;;;;;8.02;2.20;;;;;;;15.96;59.15;93851.00;528796;27;927;-41
2023/09/27 00:41:20;;;;;;;1.98;1.77;;;;;;;15.94;59.13;93851.56;528784;27;950;-41
2023/09/27 00:41:35;;;;;;;2.50;2.00;;;;;;;15.94;59.07;93848.78;528769;27;847;-41
2023/09/27 00:41:51;;;;;;;3.43;1.70;;;;;;;15.86;59.20;93837.00;528884;27;918;-41
2023/09/27 00:42:06;;;;;;;4.68;1.50;;;;;;;15.90;58.99;93851.25;528865;27;872;-41
2023/09/27 00:42:23;;;;;;;4.53;1.70;;;;;;;15.90;58.95;93850.50;528896;27;832;-41
2023/09/27 00:42:38;;;;;;;3.25;1.95;;;;;;;15.89;59.17;93849.06;528823;27;809;-41
2023/09/27 00:42:54;;;;;;;2.70;1.77;;;;;;;15.86;59.21;93847.41;528872;27;927;-41
2023/09/27 00:43:10;;;;;;;2.10;1.70;;;;;;;15.80;59.21;93841.34;528843;27;857;-41
2023/09/27 00:43:30;;;;;;;2.58;1.80;;;;;;;15.83;59.28;93840.22;528836;27;892;-41
2023/09/27 00:43:45;;;;;;;3.60;2.00;;;;;;;15.82;59.42;93844.28;528789;27;939;-41
2023/09/27 00:44:00;;;;;;;3.63;1.90;;;;;;;15.80;59.47;93846.91;528917;27;915;-41
2023/09/27 00:44:16;;;;;;;2.60;1.60;;;;;;;15.79;59.43;93843.38;528791;27;1635;-41
2023/09/27 00:44:31;;;;;;;2.28;1.60;;;;;;;15.78;59.54;93839.16;528468;27;827;-41
2023/09/27 00:44:47;;;;;;;2.80;1.63;;;;;;;15.77;59.52;93840.44;528095;27;1005;-41
2023/09/27 00:45:03;;;;;;;3.03;1.88;;;;;;;15.73;59.56;93833.81;528097;28;946;-41
2023/09/27 00:45:18;;;;;;;3.42;2.00;;;;;;;15.73;59.74;93836.59;528417;28;856;-41
2023/09/27 00:45:34;;;;;;;3.10;1.90;;;;;;;15.73;59.77;93839.38;528445;28;1228;-41
2023/09/27 00:45:49;;;;;;;3.80;1.73;;;;;;;15.71;59.84;93842.75;528413;28;837;-41
2023/09/27 00:46:06;;;;;;;3.75;1.70;;;;;;;15.70;59.95;93840.53;528343;28;887;-41
2023/09/27 00:46:22;;;;;;;2.95;1.85;;;;;;;15.67;60.09;93841.69;528279;28;915;-41
2023/09/27 00:46:39;;;;;;;3.17;2.05;;;;;;;15.66;60.17;93840.94;526261;28;923;-41
2023/09/27 00:46:54;;;;;;;3.35;2.13;;;;;;;15.65;60.23;93835.94;524074;28;1430;-41
2023/09/27 00:47:10;;;;;;;3.40;2.00;;;;;;;15.65;60.45;93844.28;524189;28;1557;-41
2023/09/27 00:47:26;;;;;;;3.60;2.00;;;;;;;15.64;60.41;93846.34;524104;28;915;-41
2023/09/27 00:47:41;;;;;;;2.73;1.70;;;;;;;15.62;60.63;93840.59;525053;28;857;-41
2023/09/27 00:47:56;;;;;;;2.70;1.80;;;;;;;15.61;60.75;93843.97;524111;28;813;-41
2023/09/27 00:48:12;;;;;;;2.30;1.90;;;;;;;15.61;60.69;93843.97;522004;28;932;-41
2023/09/27 00:48:27;;;;;;;1.90;1.70;;;;;;;15.61;60.77;93843.97;520551;28;885;-41
2023/09/27 00:48:43;;;;;;;2.38;1.80;;;;;;;15.59;60.79;93836.19;520418;28;892;-41
2023/09/27 00:48:59;;;;;;;4.78;2.03;;;;;;;15.58;60.82;93831.94;522110;28;1332;-41
2023/09/27 00:49:14;;;;;;;6.00;2.27;;;;;;;15.59;60.89;93843.81;522004;28;1055;-41
2023/09/27 00:49:30;;;;;;;5.38;2.53;;;;;;;15.58;60.74;93840.28;522062;28;897;-41
2023/09/27 00:49:46;;;;;;;3.87;2.60;;;;;;;15.58;60.69;93845.09;520367;28;794;-41
2023/09/27 00:50:02;;;;;;;3.42;2.28;;;;;;;15.58;60.51;93839.53;522437;28;1988;-41
2023/09/27 00:50:18;;;;;;;4.20;2.17;;;;;;;15.58;60.67;93839.53;524106;28;884;-41
2023/09/27 00:50:33;;;;;;;3.58;2.05;;;;;;;15.57;60.57;93846.44;524627;28;1062;-41
2023/09/27 00:50:48;;;;;;;3.97;2.00;;;;;;;15.57;60.94;93838.06;526169;28;1144;-41
2023/09/27 00:51:04;;;;;;;4.00;2.22;;;;;;;15.57;60.65;93826.94;526158;28;983;-41
2023/09/27 00:51:20;;;;;;;2.83;2.03;;;;;;;15.56;60.89;93842.16;526333;28;861;-41
2023/09/27 00:51:36;;;;;;;2.30;2.03;;;;;;;15.55;60.85;93833.06;526724;28;987;-41
2023/09/27 00:51:51;;;;;;;2.03;1.77;;;;;;;15.57;60.90;93838.78;526845;28;884;-41
2023/09/27 00:52:07;;;;;;;2.87;1.87;;;;;;;15.57;61.05;93838.06;526226;28;856;-41
2023/09/27 00:52:22;;;;;;;5.85;2.25;;;;;;;15.47;61.21;93823.31;526255;28;904;-41
2023/09/27 00:52:40;;;;;;;4.27;2.03;;;;;;;15.56;61.10;93837.34;526179;28;900;-41
2023/09/27 00:52:55;;;;;;;2.30;1.90;;;;;;;15.56;61.05;93839.38;526204;28;1699;-41
2023/09/27 00:53:10;;;;;;;1.87;1.77;;;;;;;15.55;60.93;93843.47;526249;28;786;-41
2023/09/27 00:53:30;;;;;;;3.20;1.63;;;;;;;15.53;60.88;93841.25;526214;28;864;-41
2023/09/27 00:53:46;;;;;;;4.68;1.88;;;;;;;15.53;61.03;93841.25;527278;28;1579;-41
2023/09/27 00:54:02;;;;;;;3.03;2.00;;;;;;;15.53;61.03;93848.84;528430;28;948;-41
2023/09/27 00:54:17;;;;;;;2.97;1.93;;;;;;;15.52;61.00;93834.22;528565;28;980;-41
2023/09/27 00:54:34;;;;;;;4.80;2.20;;;;;;;15.51;61.00;93840.34;528463;28;853;-41
2023/09/27 00:54:50;;;;;;;3.22;2.00;;;;;;;15.39;60.98;93817.06;528514;28;1016;-41
2023/09/27 00:55:09;;;;;;;3.45;1.77;;;;;;;15.50;61.21;93834.06;528321;28;935;-41
2023/09/27 00:55:24;;;;;;;2.80;1.73;;;;;;;15.48;61.12;93836.69;526187;28;860;-42
2023/09/27 00:55:40;;;;;;;3.17;1.53;;;;;;;15.49;61.10;93838.16;526251;28;897;-41
2023/09/27 00:55:56;;;;;;;3.10;1.50;;;;;;;15.50;61.13;93844.44;526265;28;892;-41
2023/09/27 00:56:11;;;;;;;2.25;1.85;;;;;;;15.36;61.00;93818.22;526240;28;988;-41
2023/09/27 00:56:27;;;;;;;2.10;1.80;;;;;;;15.33;60.95;93811.75;526253;28;825;-41
2023/09/27 00:56:42;;;;;;;2.55;1.77;;;;;;;15.49;61.02;93843.72;524140;28;861;-42
2023/09/27 00:56:58;;;;;;;2.47;1.80;;;;;;;15.49;61.03;93845.75;525018;28;849;-41
2023/09/27 00:57:14;;;;;;;3.85;1.95;;;;;;;15.49;60.98;93842.97;524060;28;1228;-41
2023/09/27 00:57:29;;;;;;;3.83;2.00;;;;;;;15.47;61.06;93843.53;524196;28;1179;-41
2023/09/27 00:57:44;;;;;;;2.38;2.10;;;;;;;15.48;61.05;93841.50;522385;28;829;-41
2023/09/27 00:58:00;;;;;;;3.03;2.33;;;;;;;15.48;60.88;93842.25;522111;28;857;-41
2023/09/27 00:58:18;;;;;;;3.20;2.10;;;;;;;15.48;60.85;93839.47;519919;28;1541;-41
2023/09/27 00:58:34;;;;;;;3.13;2.17;;;;;;;15.48;60.88;93841.50;520545;28;949;-41
2023/09/27 00:58:50;;;;;;;2.50;2.10;;;;;;;15.47;60.87;93840.75;522181;28;877;-41
2023/09/27 00:59:07;;;;;;;1.98;1.88;;;;;;;15.47;60.86;93840.75;522879;28;861;-41
2023/09/27 00:59:22;;;;;;;2.10;1.90;;;;;;;15.48;60.83;93844.28;524100;28;861;-41
2023/09/27 00:59:38;;;;;;;3.72;2.03;;;;;;;15.48;60.76;93841.50;525191;28;889;-41
2023/09/27 00:59:53;;;;;;;3.72;1.90;;;;;;;15.48;60.51;93842.25;525221;28;861;-41
2023/09/27 01:00:10;;;;;;;2.23;1.87;;;;;;;15.49;60.69;93834.63;526168;28;1161;-41
2023/09/27 01:00:25;;;;;;;2.13;1.85;;;;;;;15.48;60.58;93838.72;524133;28;849;-41
2023/09/27 01:00:41;;;;;;;1.85;1.75;;;;;;;15.47;60.76;93842.81;521986;28;1667;-41
2023/09/27 01:00:57;;;;;;;1.80;1.60;;;;;;;15.30;60.69;93814.94;520761;28;850;-41
2023/09/27 01:01:13;;;;;;;3.55;1.85;;;;;;;15.46;60.80;93835.78;522032;28;905;-41
2023/09/27 01:01:29;;;;;;;3.80;1.90;;;;;;;15.43;60.75;93837.66;522131;28;874;-41
2023/09/27 01:01:45;;;;;;;2.43;1.90;;;;;;;15.42;60.86;93838.19;522711;28;1141;-41
2023/09/27 01:02:01;;;;;;;2.10;1.83;;;;;;;15.36;60.92;93829.34;524174;28;975;-41
2023/09/27 01:02:16;;;;;;;4.90;1.90;;;;;;;15.41;60.83;93843.03;524845;28;892;-41
2023/09/27 01:02:32;;;;;;;6.18;2.13;;;;;;;15.39;60.94;93837.28;527022;28;845;-41
2023/09/27 01:02:47;;;;;;;4.80;2.20;;;;;;;15.39;61.02;93834.50;529074;27;837;-41
2023/09/27 01:03:04;;;;;;;3.25;1.92;;;;;;;15.40;61.04;93838.75;530485;27;801;-41
2023/09/27 01:03:19;;;;;;;2.22;1.85;;;;;;;15.39;61.23;93831.72;530411;27;955;-41
2023/09/27 01:03:35;;;;;;;2.43;2.00;;;;;;;15.39;61.03;93842.88;529709;27;1009;-41
2023/09/27 01:03:50;;;;;;;2.47;1.85;;;;;;;15.39;61.09;93837.28;528514;28;871;-41
2023/09/27 01:04:08;;;;;;;2.30;1.90;;;;;;;15.37;61.24;93831.56;527238;28;2490;-41
2023/09/27 01:04:23;;;;;;;2.78;2.20;;;;;;;15.37;61.26;93833.59;526117;28;1249;-41
2023/09/27 01:04:40;;;;;;;2.93;2.00;;;;;;;15.24;61.43;93817.22;526233;28;1017;-41
2023/09/27 01:04:55;;;;;;;2.33;1.70;;;;;;;15.37;61.29;93841.94;524120;28;949;-41
2023/09/27 01:05:11;;;;;;;2.30;1.80;;;;;;;15.35;61.39;93834.19;522133;28;849;-41
2023/09/27 01:05:26;;;;;;;2.75;2.03;;;;;;;15.35;61.35;93833.44;521980;28;945;-41
2023/09/27 01:05:42;;;;;;;1.97;1.77;;;;;;;15.32;61.35;93834.56;522002;28;1123;-41
2023/09/27 01:05:58;;;;;;;1.65;1.50;;;;;;;15.31;61.53;93836.59;520763;28;806;-41
2023/09/27 01:06:13;;;;;;;2.20;1.77;;;;;;;15.31;61.63;93838.69;522049;28;844;-41
2023/09/27 01:06:28;;;;;;;3.17;2.00;;;;;;;15.30;61.75;93834.41;519933;28;936;-41
2023/09/27 01:06:44;;;;;;;4.20;1.97;;;;;;;15.30;61.88;93834.41;520357;28;857;-41
2023/09/27 01:06:59;;;;;;;3.58;1.88;;;;;;;15.29;62.03;93832.94;520412;28;831;-41
2023/09/27 01:07:15;;;;;;;3.03;2.20;;;;;;;15.28;61.95;93825.91;521995;28;1220;-41
2023/09/27 01:07:30;;;;;;;3.00;2.00;;;;;;;15.29;62.08;93835.72;520027;28;798;-41
2023/09/27 01:07:46;;;;;;;2.40;1.73;;;;;;;15.28;62.30;93834.25;520315;28;897;-41
2023/09/27 01:08:01;;;;;;;2.47;2.00;;;;;;;15.29;62.38;93835.72;522057;28;859;-41
2023/09/27 01:08:17;;;;;;;2.25;2.03;;;;;;;15.27;62.43;93833.50;520219;28;881;-41
2023/09/27 01:08:32;;;;;;;3.03;2.33;;;;;;;15.28;62.34;93837.75;521984;28;877;-41
2023/09/27 01:08:47;;;;;;;3.30;2.58;;;;;;;15.29;62.27;93844.06;522393;28;856;-41
2023/09/27 01:09:03;;;;;;;3.17;2.30;;;;;;;15.29;62.34;93832.94;524106;28;1112;-41
2023/09/27 01:09:18;;;;;;;3.20;2.37;;;;;;;15.30;62.40;93842.75;524529;28;845;-41
2023/09/27 01:09:34;;;;;;;2.85;2.15;;;;;;;15.30;62.27;93839.97;526165;28;971;-41
2023/09/27 01:09:49;;;;;;;3.70;2.13;;;;;;;15.30;62.42;93834.41;526267;28;801;-41
2023/09/27 01:10:05;;;;;;;4.60;2.10;;;;;;;15.29;62.29;93838.50;526033;28;1937;-41
2023/09/27 01:10:21;;;;;;;3.50;1.95;;;;;;;15.27;62.43;93835.56;526343;28;1019;-41
2023/09/27 01:10:36;;;;;;;2.73;2.07;;;;;;;15.24;62.42;93831.88;526332;28;1637;-41
2023/09/27 01:10:52;;;;;;;3.15;2.22;;;;;;;15.26;62.63;93836.84;526419;28;825;-41
2023/09/27 01:11:08;;;;;;;3.72;2.13;;;;;;;15.25;62.68;93838.16;526412;28;845;-41
2023/09/27 01:11:24;;;;;;;3.43;1.97;;;;;;;15.24;62.85;93837.44;526391;28;884;-41
2023/09/27 01:11:40;;;;;;;4.47;2.03;;;;;;;15.23;62.87;93838.72;526374;28;951;-41
2023/09/27 01:11:55;;;;;;;4.60;1.93;;;;;;;15.24;62.89;93843.00;526330;28;1150;-41
2023/09/27 01:12:10;;;;;;;2.20;1.90;;;;;;;15.24;63.04;93845.03;526338;28;852;-41
2023/09/27 01:12:26;;;;;;;2.67;2.05;;;;;;;15.24;62.94;93833.91;526315;28;936;-41
2023/09/27 01:12:42;;;;;;;3.63;2.10;;;;;;;15.25;62.89;93843.72;526367;28;881;-41
2023/09/27 01:12:57;;;;;;;3.53;2.23;;;;;;;15.24;62.79;93842.25;526456;28;845;-41
2023/09/27 01:13:13;;;;;;;2.42;2.00;;;;;;;15.23;62.77;93835.94;526281;28;935;-41
2023/09/27 01:13:28;;;;;;;2.10;1.90;;;;;;;15.22;62.66;93848.41;526408;28;849;-41
2023/09/27 01:13:44;;;;;;;2.30;2.10;;;;;;;15.22;62.53;93840.06;526303;28;893;-41
2023/09/27 01:14:00;;;;;;;3.33;2.03;;;;;;;15.21;62.50;93830.22;526216;28;1023;-41
2023/09/27 01:14:15;;;;;;;3.77;2.07;;;;;;;15.21;62.58;93833.00;526107;28;869;-41
2023/09/27 01:14:30;;;;;;;4.47;2.20;;;;;;;15.19;62.56;93838.41;524157;28;1024;-41
2023/09/27 01:14:46;;;;;;;4.15;2.03;;;;;;;15.18;62.58;93837.66;524108;28;821;-41
2023/09/27 01:15:02;;;;;;;1.98;1.67;;;;;;;15.18;62.73;93843.22;524087;28;1004;-41
2023/09/27 01:15:17;;;;;;;2.50;1.70;;;;;;;15.16;62.74;93837.50;521989;28;2669;-41
2023/09/27 01:15:33;;;;;;;3.20;2.10;;;;;;;15.17;62.91;93836.19;522006;28;858;-41
2023/09/27 01:15:49;;;;;;;3.10;2.35;;;;;;;15.17;62.92;93838.97;522394;28;861;-42
2023/09/27 01:16:05;;;;;;;2.22;1.98;;;;;;;15.14;63.11;93833.78;524075;28;928;-41
2023/09/27 01:16:20;;;;;;;2.57;1.97;;;;;;;15.16;63.18;93834.72;524656;28;885;-41
2023/09/27 01:16:36;;;;;;;3.42;2.13;;;;;;;15.17;63.08;93832.66;526161;28;848;-41